Time;durP1;ratioP1;P1;durP2;ratioP2;P2;SDS_P1;SDS_P2;PMS_P1;PMS_P2;Temp;Humidity;BMP_temperature;BMP_pressure;BME280_temperature;BME280_humidity;BME280_pressure;Samples;Min_cycle;Max_cycle;Signal;HPM_P1;HPM_P2
2022/04/11 00:00:09;;;;;;;4.63;1.70;;;;;;;2.08;77.70;100630.06;4995106;28;20040;-59
2022/04/11 00:02:35;;;;;;;2.93;1.80;;;;;;;2.10;77.39;100624.69;4994057;28;20069;-60
2022/04/11 00:05:01;;;;;;;2.90;1.40;;;;;;;2.06;77.34;100624.09;4993779;28;20274;-60
2022/04/11 00:07:30;;;;;;;4.03;1.90;;;;;;;2.06;77.56;100626.72;4992879;28;20461;-60
2022/04/11 00:09:56;;;;;;;3.30;2.67;;;;;;;2.03;77.39;100629.56;4992962;28;20096;-64
2022/04/11 00:12:21;;;;;;;9.17;3.07;;;;;;;2.02;77.49;100627.84;4993629;28;20296;-62
2022/04/11 00:14:47;;;;;;;3.70;1.87;;;;;;;2.00;77.37;100628.91;4993647;28;20042;-63
2022/04/11 00:17:13;;;;;;;4.47;1.70;;;;;;;1.98;76.96;100623.78;4992498;28;20133;-59
2022/04/11 00:19:38;;;;;;;3.53;1.70;;;;;;;2.11;76.74;100640.34;4992531;28;20038;-63
2022/04/11 00:22:04;;;;;;;2.10;1.50;;;;;;;2.15;76.74;100644.41;4992174;28;20058;-61
2022/04/11 00:24:29;;;;;;;4.33;1.73;;;;;;;2.18;76.61;100649.44;4992379;28;20410;-59
2022/04/11 00:26:55;;;;;;;5.67;2.87;;;;;;;2.12;76.42;100644.66;4992598;28;20206;-61
2022/04/11 00:29:20;;;;;;;4.40;1.60;;;;;;;2.10;76.72;100646.56;4995483;28;20058;-65
2022/04/11 00:31:46;;;;;;;2.80;2.00;;;;;;;2.05;76.64;100643.41;4992426;28;20375;-60
2022/04/11 00:34:11;;;;;;;2.70;1.70;;;;;;;2.04;76.63;100641.75;4992336;28;20034;-58
2022/04/11 00:36:36;;;;;;;3.83;2.50;;;;;;;2.01;76.71;100652.44;4992061;28;20042;-63
2022/04/11 00:39:02;;;;;;;2.80;1.63;;;;;;;2.02;76.80;100654.13;4992947;28;20038;-62
2022/04/11 00:41:28;;;;;;;3.23;1.87;;;;;;;1.97;76.81;100651.00;4992750;28;20034;-60
2022/04/11 00:43:53;;;;;;;5.53;1.63;;;;;;;1.97;77.07;100652.78;4994069;28;20396;-63
2022/04/11 00:46:20;;;;;;;2.47;1.60;;;;;;;1.94;77.29;100659.09;4992483;28;20042;-58
2022/04/11 00:48:45;;;;;;;2.77;1.60;;;;;;;1.93;77.03;100657.41;4992051;28;20637;-59
2022/04/11 00:51:19;;;;;;;3.50;1.90;;;;;;;1.95;76.88;100662.56;4992075;28;20320;-64
2022/04/11 00:53:46;;;;;;;2.67;1.43;;;;;;;1.84;76.76;100645.78;4992770;28;20042;-58
2022/04/11 00:56:15;;;;;;;2.33;1.50;;;;;;;1.90;77.12;100677.81;4992414;28;20305;-60
2022/04/11 00:58:40;;;;;;;;;;;;;;;1.88;77.29;100679.72;4977091;28;20808;-61
2022/04/11 01:01:08;;;;;;;4.03;1.97;;;;;;;1.78;77.54;100676.91;4991889;28;19929;-63
2022/04/11 01:03:33;;;;;;;5.10;2.53;;;;;;;1.75;77.81;100679.75;4992032;28;20566;-61
2022/04/11 01:06:01;;;;;;;4.97;1.97;;;;;;;1.71;77.99;100678.25;4992302;28;20313;-62
2022/04/11 01:08:27;;;;;;;6.43;2.43;;;;;;;1.70;78.02;100684.47;4992567;28;20071;-61
2022/04/11 01:10:52;;;;;;;12.70;2.77;;;;;;;1.58;78.42;100674.84;4992346;28;20621;-59
2022/04/11 01:13:18;;;;;;;5.47;2.53;;;;;;;1.67;77.96;100689.94;4992750;28;20365;-57
2022/04/11 01:15:57;;;;;;;4.27;2.00;;;;;;;1.64;78.74;100700.66;4992981;28;20493;-56
2022/04/11 01:18:23;;;;;;;2.15;1.45;;;;;;;1.60;78.67;100697.41;4992290;28;20257;-61
2022/04/11 01:20:49;;;;;;;5.00;1.93;;;;;;;1.54;78.74;100693.44;4993749;28;20513;-65
2022/04/11 01:23:14;;;;;;;3.43;2.70;;;;;;;1.52;78.84;100690.06;4995678;28;20037;-64
2022/04/11 01:25:40;;;;;;;2.83;1.93;;;;;;;1.54;79.13;100693.44;4995440;28;20094;-62
2022/04/11 01:28:06;;;;;;;4.47;2.07;;;;;;;1.50;78.88;100694.59;4995988;28;20449;-60
2022/04/11 01:30:32;;;;;;;4.70;1.80;;;;;;;1.42;79.59;100682.91;4978830;28;20418;-60
2022/04/11 01:32:57;;;;;;;6.30;3.47;;;;;;;1.41;79.27;100695.19;4994975;28;20034;-63
2022/04/11 01:35:25;;;;;;;5.10;2.00;;;;;;;1.38;79.76;100695.41;4995265;28;20049;-64
2022/04/11 01:37:52;;;;;;;4.03;2.10;;;;;;;1.34;79.57;100699.19;4995182;28;20073;-61
2022/04/11 01:40:18;;;;;;;5.60;2.03;;;;;;;1.33;79.99;100702.75;4995271;28;20356;-61
2022/04/11 01:42:43;;;;;;;5.87;2.00;;;;;;;1.28;79.95;100697.00;4995539;28;20811;-58
2022/04/11 01:45:11;;;;;;;4.10;1.87;;;;;;;1.29;80.28;100706.56;4996411;28;20160;-61
2022/04/11 01:47:38;;;;;;;4.53;2.60;;;;;;;1.25;80.16;100702.47;4977383;28;20399;-60
2022/04/11 01:50:05;;;;;;;2.53;2.17;;;;;;;1.25;80.30;100715.56;4995207;28;20316;-63
2022/04/11 01:52:30;;;;;;;6.70;2.37;;;;;;;1.18;80.67;100698.59;4994984;28;20752;-62
2022/04/11 01:54:56;;;;;;;5.37;2.37;;;;;;;1.22;80.74;100721.03;4995069;28;20254;-63
2022/04/11 01:57:21;;;;;;;8.80;2.90;;;;;;;1.19;80.64;100710.75;4994625;28;20085;-64
2022/04/11 01:59:46;;;;;;;3.07;2.27;;;;;;;1.17;80.91;100713.47;4996645;28;20120;-63
2022/04/11 02:02:12;;;;;;;8.33;2.80;;;;;;;1.14;80.83;100710.19;4994499;28;20054;-59
2022/04/11 02:04:40;;;;;;;6.60;2.33;;;;;;;1.13;81.34;100708.53;4994765;28;20052;-59
2022/04/11 02:07:06;;;;;;;5.53;3.03;;;;;;;1.08;80.97;100702.75;4995120;28;20046;-61
2022/04/11 02:09:32;;;;;;;3.50;2.40;;;;;;;1.13;81.39;100711.97;4999188;28;20069;-63
2022/04/11 02:11:57;;;;;;;4.80;2.70;;;;;;;1.09;81.12;100709.66;4994479;28;20042;-62
2022/04/11 02:14:23;;;;;;;7.67;3.53;;;;;;;1.19;80.78;100716.84;4995664;28;20184;-62
2022/04/11 02:16:48;;;;;;;6.20;2.67;;;;;;;1.22;80.94;100719.25;4995156;28;20038;-57
2022/04/11 02:19:13;;;;;;;3.97;2.07;;;;;;;1.20;80.78;100718.50;4996480;28;20042;-61
2022/04/11 02:21:39;;;;;;;5.30;2.33;;;;;;;1.20;81.10;100720.31;4999529;28;20121;-60
2022/04/11 02:24:05;;;;;;;5.70;2.37;;;;;;;1.17;80.81;100713.47;4997695;28;20038;-63
2022/04/11 02:26:30;;;;;;;5.43;2.50;;;;;;;1.20;80.62;100715.88;4997386;28;20496;-64
2022/04/11 02:28:56;;;;;;;4.50;2.20;;;;;;;1.20;80.72;100723.75;4994730;28;20085;-63
2022/04/11 02:31:21;;;;;;;5.93;2.43;;;;;;;1.15;80.77;100719.75;4993578;28;20043;-60
2022/04/11 02:33:47;;;;;;;4.33;2.00;;;;;;;1.13;81.05;100722.47;4994202;28;20089;-61
2022/04/11 02:36:12;;;;;;;6.10;3.00;;;;;;;1.15;81.17;100728.44;4994223;28;20489;-62
2022/04/11 02:38:38;;;;;;;3.87;2.60;;;;;;;1.16;80.71;100734.56;4994009;28;20034;-63
2022/04/11 02:41:03;;;;;;;6.53;2.70;;;;;;;1.15;81.25;100735.47;4976535;28;20042;-62
2022/04/11 02:43:29;;;;;;;6.67;3.00;;;;;;;1.01;81.01;100715.44;4994193;28;20136;-63
2022/04/11 02:45:54;;;;;;;5.73;3.23;;;;;;;1.13;81.07;100742.63;4977125;28;20042;-62
2022/04/11 02:48:20;;;;;;;6.43;2.67;;;;;;;1.12;80.80;100730.44;4993733;28;20216;-59
2022/04/11 02:50:45;;;;;;;7.13;4.13;;;;;;;1.14;81.02;100739.88;4993808;28;20117;-60
2022/04/11 02:53:11;;;;;;;8.50;2.80;;;;;;;1.20;80.67;100749.16;4993647;28;20034;-63
2022/04/11 02:55:36;;;;;;;6.47;2.67;;;;;;;1.16;80.48;100745.91;4976276;28;20497;-62
2022/04/11 02:58:02;;;;;;;5.13;3.07;;;;;;;1.15;80.43;100746.81;4993768;28;20133;-60
2022/04/11 03:00:27;;;;;;;7.53;4.20;;;;;;;1.14;80.92;100760.03;4976883;28;20401;-61
2022/04/11 03:02:54;;;;;;;8.60;3.57;;;;;;;1.12;81.04;100754.91;4993344;28;20081;-62
2022/04/11 03:05:19;;;;;;;5.30;3.20;;;;;;;1.14;80.86;100754.78;4993432;28;20042;-62
2022/04/11 03:07:44;;;;;;;11.30;4.10;;;;;;;1.10;80.74;100753.31;4993253;28;20294;-63
2022/04/11 03:10:10;;;;;;;9.33;3.70;;;;;;;1.11;80.87;100768.13;4993251;28;20462;-65
2022/04/11 03:12:36;;;;;;;6.90;3.47;;;;;;;1.10;81.31;100764.66;4993236;28;20070;-60
2022/04/11 03:15:03;;;;;;;4.40;3.40;;;;;;;1.10;81.19;100764.66;4995819;28;20289;-59
2022/04/11 03:17:29;;;;;;;7.83;3.90;;;;;;;1.09;81.03;100772.63;4993345;28;20081;-64
2022/04/11 03:19:55;;;;;;;6.63;3.20;;;;;;;1.10;81.46;100767.28;4993506;28;20265;-60
2022/04/11 03:22:20;;;;;;;5.17;3.60;;;;;;;0.98;81.31;100751.53;4993287;28;20261;-64
2022/04/11 03:24:46;;;;;;;11.23;3.00;;;;;;;1.11;80.96;100775.97;4994956;28;20114;-62
2022/04/11 03:27:11;;;;;;;5.93;2.63;;;;;;;1.13;80.75;100769.69;4993597;28;20096;-63
2022/04/11 03:29:37;;;;;;;5.63;3.03;;;;;;;1.10;80.60;100774.31;4994376;28;20049;-59
2022/04/11 03:32:03;;;;;;;8.17;3.27;;;;;;;1.11;80.97;100761.09;4993717;28;20108;-64
2022/04/11 03:34:29;;;;;;;7.13;2.90;;;;;;;1.17;81.04;100776.44;4992928;28;20045;-58
2022/04/11 03:36:55;;;;;;;9.00;3.47;;;;;;;1.18;80.98;100783.38;4993609;28;20266;-62
2022/04/11 03:39:23;;;;;;;10.90;4.00;;;;;;;1.19;80.96;100785.03;4993037;28;20061;-61
2022/04/11 03:41:49;;;;;;;6.00;3.00;;;;;;;1.21;80.85;100784.94;4992760;28;20757;-64
2022/04/11 03:44:14;;;;;;;4.07;2.87;;;;;;;1.24;81.35;100782.94;4992891;28;20100;-62
2022/04/11 03:46:40;;;;;;;5.90;3.03;;;;;;;1.30;80.50;100792.19;4993872;28;20504;-58
2022/04/11 03:49:09;;;;;;;6.78;4.47;;;;;;;1.73;79.70;100789.25;4992592;28;20072;-66
2022/04/11 03:51:34;;;;;;;6.77;2.97;;;;;;;2.32;77.77;100786.91;4975385;28;20498;-60
2022/04/11 03:57:33;;;;;;;9.10;3.87;;;;;;;2.55;75.21;100791.34;4959830;28;20053;-60
2022/04/11 03:59:58;;;;;;;11.13;3.50;;;;;;;2.18;76.80;100791.34;4994395;28;20281;-60
2022/04/11 04:02:24;;;;;;;7.50;3.90;;;;;;;1.92;77.84;100787.06;4993485;28;20285;-59
2022/04/11 04:04:50;;;;;;;8.10;4.77;;;;;;;1.77;78.45;100793.38;4992879;28;20038;-63
2022/04/11 04:07:15;;;;;;;10.70;3.43;;;;;;;1.73;78.81;100797.13;4993101;28;20463;-63
2022/04/11 04:09:42;;;;;;;5.47;3.37;;;;;;;1.60;79.40;100791.91;4975629;28;20034;-59
2022/04/11 04:12:08;;;;;;;7.90;3.87;;;;;;;1.54;79.63;100792.31;4992777;28;20054;-62
2022/04/11 04:14:39;;;;;;;4.33;2.70;;;;;;;1.58;79.84;100800.81;4993383;28;20274;-67
2022/04/11 04:17:04;;;;;;;6.93;3.30;;;;;;;1.57;79.68;100804.41;4993165;28;20301;-66
2022/04/11 04:19:33;;;;;;;9.57;3.23;;;;;;;1.54;80.01;100811.53;4975296;28;20352;-63
2022/04/11 04:21:59;;;;;;;10.50;4.65;;;;;;;1.53;80.00;100804.59;4992981;28;20341;-61
2022/04/11 04:24:24;;;;;;;10.97;3.50;;;;;;;1.49;80.09;100804.94;4992957;28;20042;-62
2022/04/11 04:26:50;;;;;;;7.00;3.33;;;;;;;1.55;80.13;100817.63;4992606;28;20432;-65
2022/04/11 04:29:20;;;;;;;9.33;4.43;;;;;;;1.50;80.19;100810.06;4992570;28;20049;-65
2022/04/11 04:31:47;;;;;;;6.50;3.50;;;;;;;1.54;79.92;100816.78;4993477;28;20084;-68
2022/04/11 04:34:13;;;;;;;7.97;3.40;;;;;;;1.54;80.05;100822.03;4992814;28;20743;-69
2022/04/11 04:36:39;;;;;;;5.37;3.33;;;;;;;1.53;79.89;100820.34;4992455;28;20332;-66
2022/04/11 04:39:05;;;;;;;14.23;4.77;;;;;;;1.61;79.83;100825.09;4992932;28;20372;-67
2022/04/11 04:41:31;;;;;;;8.30;3.90;;;;;;;1.61;79.49;100819.00;4975759;28;20478;-66
2022/04/11 04:43:56;;;;;;;8.47;3.33;;;;;;;1.62;79.44;100823.28;4992572;28;20757;-67
2022/04/11 04:46:22;;;;;;;6.70;3.13;;;;;;;1.62;79.45;100834.63;4993707;28;20034;-63
2022/04/11 04:48:48;;;;;;;13.00;3.83;;;;;;;1.60;79.61;100823.41;4993248;28;20125;-65
2022/04/11 04:51:41;;;;;;;5.60;3.20;;;;;;;1.62;79.12;100826.75;4994245;28;20057;-64
2022/04/11 04:54:06;;;;;;;6.25;3.20;;;;;;;1.67;79.32;100822.03;4993983;28;20342;-64
2022/04/11 04:56:35;;;;;;;9.70;3.07;;;;;;;1.75;79.41;100832.03;4995702;28;20543;-63
2022/04/11 04:59:01;;;;;;;14.53;4.23;;;;;;;1.77;79.00;100832.78;4996644;28;20042;-63
2022/04/11 05:01:27;;;;;;;7.30;3.07;;;;;;;1.90;78.70;100830.97;4997669;28;20281;-63
2022/04/11 05:03:54;;;;;;;7.10;3.50;;;;;;;1.99;78.71;100835.59;4978946;28;20050;-66
2022/04/11 05:06:22;;;;;;;12.30;4.10;;;;;;;2.05;78.32;100832.56;4996695;28;20421;-61
2022/04/11 05:08:51;;;;;;;10.77;3.75;;;;;;;2.11;78.13;100832.13;4996638;28;20316;-63
2022/04/11 05:11:20;;;;;;;9.85;3.45;;;;;;;2.11;77.74;100823.41;4996795;28;20074;-66
2022/04/11 05:13:46;;;;;;;10.27;3.20;;;;;;;2.21;77.71;100826.22;4996477;28;20040;-62
2022/04/11 05:16:12;;;;;;;10.00;3.57;;;;;;;2.26;77.22;100819.69;4996394;28;20640;-61
2022/04/11 05:18:37;;;;;;;9.07;3.80;;;;;;;2.36;76.95;100820.75;4996059;28;20049;-61
2022/04/11 05:21:03;;;;;;;11.40;3.20;;;;;;;2.40;76.57;100816.09;4978543;28;20305;-65
2022/04/11 05:23:28;;;;;;;9.83;4.37;;;;;;;2.48;76.53;100822.47;4995827;28;20132;-65
2022/04/11 05:25:56;;;;;;;10.03;4.33;;;;;;;2.56;76.20;100824.56;4996372;28;20062;-63
2022/04/11 05:28:24;;;;;;;8.20;3.47;;;;;;;2.63;75.76;100822.34;4983268;28;20058;-62
2022/04/11 05:30:50;;;;;;;9.43;3.77;;;;;;;2.71;75.24;100826.09;4997095;28;20266;-63
2022/04/11 05:33:15;;;;;;;8.83;3.63;;;;;;;2.65;74.96;100813.41;4996389;28;20532;-60
2022/04/11 05:35:41;;;;;;;9.67;3.07;;;;;;;2.83;74.61;100819.09;4995749;28;20046;-65
2022/04/11 05:38:07;;;;;;;7.10;3.00;;;;;;;2.89;74.77;100820.44;4996488;28;20030;-65
2022/04/11 05:40:33;;;;;;;16.57;3.50;;;;;;;2.97;74.65;100826.00;4978278;28;20323;-64
2022/04/11 05:42:59;;;;;;;8.20;2.70;;;;;;;3.03;74.04;100820.28;4994373;28;20054;-64
2022/04/11 05:45:24;;;;;;;6.87;2.83;;;;;;;3.05;73.96;100824.47;4995801;28;20041;-60
2022/04/11 05:47:49;;;;;;;13.80;3.77;;;;;;;3.13;73.99;100825.69;4996819;28;20413;-64
2022/04/11 05:50:15;;;;;;;8.53;3.50;;;;;;;3.21;73.75;100836.53;4995337;28;20069;-68
2022/04/11 05:52:41;;;;;;;8.87;4.00;;;;;;;3.24;73.06;100829.22;4995430;28;20426;-63
2022/04/11 05:55:07;;;;;;;8.73;3.63;;;;;;;3.25;73.12;100820.38;4994843;28;20038;-58
2022/04/11 05:57:32;;;;;;;13.40;3.80;;;;;;;3.40;72.67;100826.28;4982673;28;20517;-63
2022/04/11 05:59:58;;;;;;;12.80;3.47;;;;;;;3.48;72.55;100831.00;4983548;28;20481;-61
2022/04/11 06:02:23;;;;;;;7.13;3.20;;;;;;;3.55;71.72;100826.94;4975765;28;20101;-63
2022/04/11 06:04:50;;;;;;;6.23;3.57;;;;;;;3.67;71.10;100841.78;4975191;28;20042;-60
2022/04/11 06:07:20;;;;;;;6.03;2.87;;;;;;;3.68;70.03;100839.03;4974717;28;20098;-64
2022/04/11 06:09:46;;;;;;;3.93;2.17;;;;;;;3.73;69.89;100841.31;4974824;28;20356;-67
2022/04/11 06:12:12;;;;;;;10.57;2.80;;;;;;;3.78;69.71;100849.75;4974630;28;20761;-62
2022/04/11 06:14:37;;;;;;;12.73;3.10;;;;;;;3.85;69.13;100848.31;4975020;28;20078;-63
2022/04/11 06:17:03;;;;;;;11.13;3.27;;;;;;;3.91;69.57;100839.94;4975253;28;20769;-62
2022/04/11 06:19:29;;;;;;;10.87;3.30;;;;;;;3.97;68.96;100834.19;4974978;28;20085;-64
2022/04/11 06:21:54;;;;;;;12.20;4.50;;;;;;;4.02;69.43;100839.94;4975219;28;20035;-62
2022/04/11 06:24:20;;;;;;;15.37;4.00;;;;;;;4.15;69.04;100837.19;4975148;28;20050;-64
2022/04/11 06:26:45;;;;;;;11.33;3.40;;;;;;;4.25;67.87;100842.59;4974413;28;20125;-63
2022/04/11 06:29:11;;;;;;;10.23;4.03;;;;;;;4.28;67.79;100829.16;4975173;28;20045;-60
2022/04/11 06:31:37;;;;;;;17.33;4.37;;;;;;;4.30;68.05;100824.59;4975762;28;20031;-61
2022/04/11 06:34:03;;;;;;;14.83;3.37;;;;;;;4.38;67.58;100832.75;4974487;28;20031;-60
2022/04/11 06:36:28;;;;;;;12.00;3.30;;;;;;;4.37;67.45;100819.69;4974440;28;20054;-60
2022/04/11 06:38:54;;;;;;;12.40;3.10;;;;;;;4.41;66.66;100824.59;4974272;28;20273;-59
2022/04/11 06:41:19;;;;;;;10.67;3.30;;;;;;;4.49;66.27;100832.75;4992550;28;20047;-58
2022/04/11 06:43:45;;;;;;;6.00;2.90;;;;;;;4.55;66.58;100837.53;4993876;28;20117;-60
2022/04/11 06:46:10;;;;;;;16.93;4.63;;;;;;;4.37;66.28;100796.81;4993924;28;20045;-63
2022/04/11 06:48:36;;;;;;;12.90;3.73;;;;;;;4.64;66.47;100828.91;4993546;28;20042;-60
2022/04/11 06:51:02;;;;;;;14.17;4.50;;;;;;;4.77;66.14;100849.00;4993560;28;20043;-62
2022/04/11 06:53:28;;;;;;;13.37;3.43;;;;;;;4.75;65.30;100835.94;4993381;28;20108;-61
2022/04/11 06:55:53;;;;;;;14.50;3.80;;;;;;;4.82;65.70;100842.41;4993552;28;20668;-64
2022/04/11 06:58:19;;;;;;;11.37;4.77;;;;;;;4.94;64.91;100856.41;4993961;28;20042;-63
2022/04/11 07:00:45;;;;;;;14.10;3.83;;;;;;;4.99;64.95;100843.69;4993818;28;20061;-61
2022/04/11 07:03:11;;;;;;;15.30;4.80;;;;;;;5.07;63.90;100843.88;4993807;28;20072;-62
2022/04/11 07:05:38;;;;;;;24.43;5.23;;;;;;;5.15;65.00;100854.66;4993453;28;20289;-56
2022/04/11 07:08:05;;;;;;;14.47;4.70;;;;;;;5.18;64.56;100854.41;4993108;28;20300;-60
2022/04/11 07:10:34;;;;;;;17.10;4.77;;;;;;;5.23;64.22;100846.97;4992933;28;20274;-60
2022/04/11 07:12:59;;;;;;;;;;;;;;;5.38;63.96;100854.56;4976278;28;20273;-55
2022/04/11 07:15:25;;;;;;;11.03;4.87;;;;;;;5.39;62.84;100856.25;4993413;28;19976;-60
2022/04/11 07:17:51;;;;;;;9.37;3.20;;;;;;;5.44;62.57;100861.97;4993330;28;20049;-60
2022/04/11 07:20:17;;;;;;;12.03;4.40;;;;;;;5.44;62.32;100860.19;4993930;28;20269;-60
2022/04/11 07:22:42;;;;;;;12.20;3.70;;;;;;;5.47;63.40;100857.28;4975728;28;20038;-59
2022/04/11 07:25:09;;;;;;;11.90;3.73;;;;;;;5.50;62.88;100864.13;4993758;28;20030;-58
2022/04/11 07:27:35;;;;;;;31.53;5.10;;;;;;;5.57;62.33;100870.56;4994171;28;20026;-59
2022/04/11 07:30:00;;;;;;;14.23;3.17;;;;;;;5.59;61.83;100869.47;4976288;28;20315;-59
2022/04/11 07:32:26;;;;;;;9.73;2.97;;;;;;;5.62;62.31;100872.84;4993305;28;20085;-58
2022/04/11 07:34:51;;;;;;;13.13;4.27;;;;;;;5.69;61.74;100868.69;4993112;28;20030;-61
2022/04/11 07:37:17;;;;;;;6.30;3.43;;;;;;;5.81;62.09;100867.69;4992530;28;20169;-62
2022/04/11 07:39:43;;;;;;;11.57;3.40;;;;;;;5.90;62.20;100870.41;4992659;28;20053;-61
2022/04/11 07:42:08;;;;;;;26.70;5.00;;;;;;;5.92;61.43;100872.09;4992586;28;20406;-61
2022/04/11 07:44:34;;;;;;;8.00;4.43;;;;;;;5.92;60.77;100869.44;4992731;28;20073;-55
2022/04/11 07:46:59;;;;;;;18.13;3.63;;;;;;;5.93;61.21;100868.47;4993171;28;20034;-56
2022/04/11 07:49:25;;;;;;;12.13;3.90;;;;;;;5.98;61.33;100868.94;4992542;28;20185;-58
2022/04/11 07:51:50;;;;;;;8.87;3.70;;;;;;;6.04;62.41;100871.88;4992280;28;20038;-56
2022/04/11 07:54:16;;;;;;;10.67;3.40;;;;;;;6.03;62.45;100872.00;4992449;28;20049;-57
2022/04/11 07:56:42;;;;;;;14.57;3.80;;;;;;;6.15;60.92;100868.34;4992697;28;20262;-60
2022/04/11 07:59:07;;;;;;;12.50;3.10;;;;;;;6.28;59.81;100887.47;4992576;28;20134;-60
2022/04/11 08:01:34;;;;;;;10.73;2.87;;;;;;;6.27;58.99;100879.66;4993196;28;20069;-56
2022/04/11 08:03:59;;;;;;;14.63;3.57;;;;;;;6.30;60.91;100880.22;4992597;28;20045;-59
2022/04/11 08:06:25;;;;;;;10.30;3.63;;;;;;;6.32;61.22;100878.28;4992232;28;20633;-55
2022/04/11 08:08:50;;;;;;;17.57;3.60;;;;;;;6.38;60.87;100885.72;4992373;28;20069;-59
2022/04/11 08:11:19;;;;;;;12.23;4.00;;;;;;;6.26;61.58;100878.81;4992573;28;20513;-55
2022/04/11 08:13:45;;;;;;;11.23;4.03;;;;;;;6.38;61.80;100882.22;4992479;28;20462;-57
2022/04/11 08:16:12;;;;;;;10.43;3.37;;;;;;;6.53;61.48;100886.19;4993648;28;20276;-61
2022/04/11 08:18:37;;;;;;;10.43;3.17;;;;;;;6.62;61.08;100873.94;4975505;28;20042;-61
2022/04/11 08:21:04;;;;;;;10.73;3.47;;;;;;;6.66;59.65;100870.91;4992221;28;20417;-62
2022/04/11 08:23:30;;;;;;;10.10;3.23;;;;;;;6.78;58.68;100882.22;4992189;28;20089;-62
2022/04/11 08:25:56;;;;;;;11.50;3.20;;;;;;;6.82;57.52;100878.34;4992068;28;20473;-63
2022/04/11 08:28:22;;;;;;;15.47;4.13;;;;;;;6.87;57.44;100888.50;4992116;28;20065;-59
2022/04/11 08:30:48;;;;;;;10.30;3.10;;;;;;;6.75;57.04;100898.38;4995998;28;20038;-59
2022/04/11 08:33:14;;;;;;;12.90;3.23;;;;;;;6.70;57.93;100882.06;4997791;28;20049;-62
2022/04/11 08:35:39;;;;;;;16.03;3.10;;;;;;;6.83;57.77;100891.44;4995805;28;20037;-58
2022/04/11 08:38:05;;;;;;;9.77;3.07;;;;;;;6.87;57.65;100893.81;4977659;28;20501;-60
2022/04/11 08:40:31;;;;;;;10.77;3.23;;;;;;;6.83;57.36;100894.06;4995101;28;20034;-60
2022/04/11 08:42:57;;;;;;;11.93;2.80;;;;;;;6.84;57.15;100886.97;4995462;28;20416;-56
2022/04/11 08:45:23;;;;;;;10.63;2.27;;;;;;;6.93;57.03;100898.56;4995144;28;20034;-59
2022/04/11 08:47:55;;;;;;;5.53;2.93;;;;;;;7.01;57.46;100899.56;4996714;28;20042;-61
2022/04/11 08:50:21;;;;;;;11.57;2.90;;;;;;;7.07;56.85;100901.66;4995672;28;20034;-56
2022/04/11 08:52:50;;;;;;;9.60;2.63;;;;;;;7.09;55.83;100899.72;4995779;28;20100;-62
2022/04/11 08:55:17;;;;;;;12.83;3.63;;;;;;;7.14;56.68;100902.78;4995547;28;20080;-64
2022/04/11 08:57:43;;;;;;;9.97;2.50;;;;;;;7.23;55.86;100916.19;4995478;28;20077;-62
2022/04/11 09:00:14;;;;;;;6.90;2.53;;;;;;;7.15;55.26;100903.63;4995636;28;20054;-59
2022/04/11 09:02:42;;;;;;;7.43;2.93;;;;;;;7.24;56.47;100901.97;4997716;28;20087;-64
2022/04/11 09:05:09;;;;;;;12.98;2.70;;;;;;;7.39;55.74;100895.28;4995344;28;20046;-60
2022/04/11 09:07:52;;;;;;;8.23;2.60;;;;;;;7.57;55.70;100904.22;4995653;28;20422;-62
2022/04/11 09:10:25;;;;;;;6.37;2.87;;;;;;;7.55;55.21;100898.22;4995744;28;20042;-61
2022/04/11 09:12:55;;;;;;;4.37;2.27;;;;;;;7.47;54.36;100901.56;4995419;28;20035;-60
2022/04/11 09:15:25;;;;;;;6.37;2.13;;;;;;;7.49;54.96;100895.28;4995782;28;20393;-59
2022/04/11 09:17:56;;;;;;;9.20;2.60;;;;;;;7.52;54.25;100890.56;4996586;28;20050;-61
2022/04/11 09:20:25;;;;;;;9.57;2.30;;;;;;;7.60;54.60;100892.50;4995290;28;20049;-61
2022/04/11 09:22:51;;;;;;;13.87;2.90;;;;;;;7.62;54.13;100896.69;4995198;28;20133;-58
2022/04/11 09:25:18;;;;;;;7.03;2.03;;;;;;;7.61;53.26;100895.03;4995135;28;20129;-60
2022/04/11 09:27:45;;;;;;;7.30;2.33;;;;;;;7.58;54.32;100895.31;4994802;28;20041;-62
2022/04/11 09:30:24;;;;;;;18.73;2.90;;;;;;;7.67;54.22;100889.16;4994980;28;20042;-61
2022/04/11 09:32:51;;;;;;;7.95;2.33;;;;;;;7.75;53.98;100894.56;4995906;28;20510;-60
2022/04/11 09:35:21;;;;;;;7.13;2.23;;;;;;;7.85;53.71;100907.00;4994995;28;20049;-60
2022/04/11 09:37:47;;;;;;;16.13;2.97;;;;;;;7.93;53.03;100901.81;4995015;28;20034;-65
2022/04/11 09:40:21;;;;;;;4.37;2.50;;;;;;;8.06;52.13;100902.34;4995722;28;20035;-60
2022/04/11 09:42:57;;;;;;;9.97;2.50;;;;;;;8.17;52.43;100899.53;4995591;28;20042;-60
2022/04/11 09:45:23;;;;;;;8.57;2.43;;;;;;;8.20;51.81;100904.56;4996333;28;20057;-60
2022/04/11 09:48:03;;;;;;;13.67;3.00;;;;;;;8.03;52.31;100889.38;4996701;28;20097;-61
2022/04/11 09:50:30;;;;;;;14.57;3.07;;;;;;;8.09;52.25;100899.41;4977360;28;20485;-58
2022/04/11 09:53:08;;;;;;;4.33;2.03;;;;;;;8.07;51.55;100904.84;4994821;28;20039;-67
2022/04/11 09:56:08;;;;;;;7.20;2.33;;;;;;;7.98;51.45;100891.63;4995302;28;20064;-65
2022/04/11 09:58:38;;;;;;;4.80;2.03;;;;;;;8.04;51.54;100907.78;4995497;28;20133;-60
2022/04/11 10:01:08;;;;;;;3.77;1.70;;;;;;;8.12;51.22;100901.78;4994356;28;20034;-60
2022/04/11 10:03:35;;;;;;;5.00;2.30;;;;;;;8.14;51.80;100901.66;4996485;28;20042;-53
2022/04/11 10:06:02;;;;;;;8.77;2.43;;;;;;;8.13;52.03;100898.16;4995127;28;20046;-58
2022/04/11 10:08:28;;;;;;;5.00;2.20;;;;;;;8.22;51.61;100897.28;4995184;28;20122;-57
2022/04/11 10:10:55;;;;;;;5.20;2.30;;;;;;;8.28;51.42;100909.97;4994632;28;20201;-54
2022/04/11 10:13:21;;;;;;;6.87;2.23;;;;;;;8.33;51.88;100912.19;4994429;28;20493;-56
2022/04/11 10:15:49;;;;;;;6.43;2.20;;;;;;;8.35;50.72;100911.09;4994201;28;20074;-60
2022/04/11 10:18:16;;;;;;;5.82;2.00;;;;;;;8.40;51.38;100901.88;4996340;28;20100;-60
2022/04/11 10:20:46;;;;;;;7.37;2.00;;;;;;;8.29;51.32;100900.19;4994290;28;20042;-62
2022/04/11 10:23:26;;;;;;;6.13;2.37;;;;;;;8.36;51.45;100902.16;4995712;28;20047;-63
2022/04/11 10:25:54;;;;;;;6.83;2.23;;;;;;;8.51;50.78;100921.13;4994831;28;20117;-61
2022/04/11 10:28:25;;;;;;;8.13;2.00;;;;;;;8.50;50.28;100913.31;4994119;28;20124;-63
2022/04/11 10:31:10;;;;;;;6.43;1.90;;;;;;;8.57;50.59;100919.69;4994120;28;20072;-63
2022/04/11 10:33:46;;;;;;;3.17;1.70;;;;;;;8.64;49.46;100918.94;4994398;28;20129;-61
2022/04/11 10:36:35;;;;;;;3.60;1.93;;;;;;;8.73;50.29;100921.75;4993912;28;20070;-62
2022/04/11 10:39:13;;;;;;;7.13;2.50;;;;;;;8.57;49.45;100917.88;4993967;28;20057;-63
2022/04/11 10:41:56;;;;;;;7.77;1.80;;;;;;;8.65;49.69;100922.44;4993669;28;20045;-62
2022/04/11 10:44:33;;;;;;;3.07;1.97;;;;;;;8.61;49.26;100913.94;4993630;28;20026;-60
2022/04/11 10:47:08;;;;;;;9.53;2.77;;;;;;;8.74;49.47;100918.09;4994205;28;20038;-59
2022/04/11 10:49:48;;;;;;;3.20;1.60;;;;;;;8.91;48.90;100927.91;4993891;28;20057;-62
2022/04/11 10:52:36;;;;;;;5.63;2.40;;;;;;;8.99;49.01;100922.72;4993147;28;20144;-59
2022/04/11 10:55:08;;;;;;;3.90;1.80;;;;;;;9.09;48.97;100925.31;4993165;28;20041;-65
2022/04/11 10:58:00;;;;;;;4.97;2.10;;;;;;;9.14;48.37;100923.88;4993577;28;20096;-62
2022/04/11 11:00:33;;;;;;;7.70;2.43;;;;;;;9.18;48.48;100924.41;4992878;28;20088;-61
2022/04/11 11:03:06;;;;;;;4.03;2.27;;;;;;;9.23;47.95;100932.75;4992890;28;20410;-58
2022/04/11 11:06:13;;;;;;;3.87;3.07;;;;;;;9.20;48.35;100919.78;4976104;28;20038;-59
2022/04/11 11:08:39;;;;;;;6.90;1.97;;;;;;;9.15;48.28;100924.72;4993178;28;20042;-57
2022/04/11 11:11:27;;;;;;;7.97;2.40;;;;;;;9.26;48.10;100937.81;4993209;28;20038;-58
2022/04/11 11:14:00;;;;;;;10.93;1.80;;;;;;;9.34;48.88;100937.88;5171430;27;20126;-60
2022/04/11 11:16:28;;;;;;;8.67;2.07;;;;;;;9.44;47.78;100935.16;5150464;27;20047;-61
2022/04/11 11:18:53;;;;;;;6.70;1.80;;;;;;;9.49;48.14;100943.50;5155275;27;20090;-67
2022/04/11 11:21:20;;;;;;;7.97;2.67;;;;;;;9.57;48.13;100947.09;5153972;27;20067;-59
2022/04/11 11:24:04;;;;;;;10.90;2.27;;;;;;;9.76;47.27;100955.91;5150834;27;20470;-59
2022/04/11 11:26:46;;;;;;;8.50;3.20;;;;;;;9.69;47.27;100945.03;5150874;27;20034;-60
2022/04/11 11:29:17;;;;;;;17.30;2.27;;;;;;;9.62;48.10;100966.09;5150863;27;20066;-59
2022/04/11 11:31:44;;;;;;;9.67;2.13;;;;;;;9.43;48.41;100965.38;5132035;27;20035;-59
2022/04/11 11:34:11;;;;;;;4.63;2.00;;;;;;;9.12;48.90;100967.53;5150616;27;20034;-60
2022/04/11 11:36:36;;;;;;;9.13;2.93;;;;;;;8.95;49.53;100972.63;5150378;27;20035;-60